CLF2 LFPB-LGTS
Flight info
| Callsign | CLF2 |
|---|---|
| Flight time | N/A |
| Altitude | 41000 |
| Route | BUBLI DCT LUVAL DCT BEGAR DCT TRA/N0431F390 DCT GAMSA DCT GEDSO DCT VEKEN DCT DARZA DCT NAVSU DCT SOLGU DCT MEDUX UM867 KOGAT DCT TALAS UN130 ALIKO |
| Aircraft | C25C/M-SDE2E3FGHRWXY/LB1 |
Departure
| Time | 2026-04-28 10:40 |
|---|---|
| Airport | Paris-Le Bourget International Airport (LFPB) |
Arrival
| Time | N/A |
|---|---|
| Airport | Thessaloniki Macedonia International Airport (LGTS) |
| Time | Latitude | Longitude | Altitude | Speed | Heading |
|---|---|---|---|---|---|
| 2026-04-28 10:24 | 48.95109 | 2.43779 | 149 ft | 0 kts | 123° |
| 2026-04-28 10:28 | 48.95111 | 2.43789 | 149 ft | 2 kts | 47° |
| 2026-04-28 10:28 | 48.95113 | 2.43790 | 149 ft | 0 kts | 34° |
| 2026-04-28 10:28 | 48.95124 | 2.43791 | 149 ft | 4 kts | 338° |
| 2026-04-28 10:29 | 48.95139 | 2.43704 | 147 ft | 9 kts | 313° |
| 2026-04-28 10:29 | 48.95211 | 2.43681 | 146 ft | 13 kts | 24° |
| 2026-04-28 10:29 | 48.95289 | 2.43744 | 147 ft | 13 kts | 29° |
| 2026-04-28 10:29 | 48.95367 | 2.43807 | 147 ft | 13 kts | 29° |
| 2026-04-28 10:30 | 48.95442 | 2.43868 | 149 ft | 11 kts | 27° |
| 2026-04-28 10:30 | 48.95511 | 2.43923 | 149 ft | 11 kts | 28° |
| 2026-04-28 10:30 | 48.95582 | 2.43978 | 149 ft | 8 kts | 26° |
| 2026-04-28 10:30 | 48.95635 | 2.44014 | 150 ft | 9 kts | 24° |
| 2026-04-28 10:31 | 48.95698 | 2.43990 | 148 ft | 13 kts | 303° |
| 2026-04-28 10:31 | 48.95736 | 2.43863 | 149 ft | 14 kts | 295° |
| 2026-04-28 10:31 | 48.95778 | 2.43728 | 150 ft | 15 kts | 295° |
| 2026-04-28 10:31 | 48.95821 | 2.43585 | 155 ft | 13 kts | 295° |
| 2026-04-28 10:32 | 48.95853 | 2.43477 | 159 ft | 11 kts | 293° |
| 2026-04-28 10:32 | 48.95892 | 2.43353 | 157 ft | 15 kts | 294° |
| 2026-04-28 10:32 | 48.95941 | 2.43195 | 155 ft | 19 kts | 295° |
| 2026-04-28 10:32 | 48.96019 | 2.43006 | 148 ft | 24 kts | 309° |
| 2026-04-28 10:33 | 48.96124 | 2.42810 | 148 ft | 24 kts | 310° |
| 2026-04-28 10:33 | 48.96222 | 2.42628 | 155 ft | 21 kts | 310° |
| 2026-04-28 10:33 | 48.96266 | 2.42509 | 155 ft | 12 kts | 283° |
| 2026-04-28 10:33 | 48.96267 | 2.42356 | 153 ft | 16 kts | 266° |
| 2026-04-28 10:34 | 48.96263 | 2.42224 | 153 ft | 5 kts | 268° |
| 2026-04-28 10:34 | 48.96262 | 2.42204 | 154 ft | 0 kts | 265° |
| 2026-04-28 10:39 | 48.96260 | 2.42150 | 154 ft | 14 kts | 272° |
| 2026-04-28 10:39 | 48.96370 | 2.42070 | 150 ft | 23 kts | 31° |
| 2026-04-28 10:39 | 48.96447 | 2.42260 | 154 ft | 19 kts | 68° |
| 2026-04-28 10:40 | 48.96544 | 2.42617 | 166 ft | 78 kts | 69° |
| 2026-04-28 10:40 | 48.96880 | 2.43811 | 305 ft | 161 kts | 69° |
| 2026-04-28 10:40 | 48.97319 | 2.45625 | 1019 ft | 201 kts | 69° |
| 2026-04-28 10:40 | 48.97775 | 2.47692 | 2372 ft | 209 kts | 72° |
| 2026-04-28 10:41 | 48.98233 | 2.49854 | 3537 ft | 234 kts | 73° |
| 2026-04-28 10:41 | 48.98749 | 2.52404 | 4061 ft | 272 kts | 74° |
| 2026-04-28 10:41 | 48.99258 | 2.55170 | 3999 ft | 256 kts | 75° |
| 2026-04-28 10:41 | 48.99693 | 2.57636 | 3998 ft | 228 kts | 76° |
| 2026-04-28 10:42 | 48.99996 | 2.59877 | 3991 ft | 207 kts | 91° |
| 2026-04-28 10:42 | 48.99507 | 2.61833 | 3980 ft | 194 kts | 121° |
| 2026-04-28 10:42 | 48.98789 | 2.63482 | 3984 ft | 181 kts | 124° |
| 2026-04-28 10:42 | 48.98083 | 2.65047 | 3990 ft | 182 kts | 125° |
| 2026-04-28 10:43 | 48.97333 | 2.66686 | 3995 ft | 195 kts | 124° |
| 2026-04-28 10:43 | 48.96533 | 2.68390 | 4009 ft | 205 kts | 124° |
| 2026-04-28 10:43 | 48.95656 | 2.70201 | 3999 ft | 214 kts | 126° |
| 2026-04-28 10:43 | 48.94754 | 2.72031 | 3997 ft | 221 kts | 126° |
| 2026-04-28 10:44 | 48.93997 | 2.74087 | 3987 ft | 226 kts | 102° |
| 2026-04-28 10:44 | 48.93878 | 2.76489 | 4010 ft | 230 kts | 92° |
| 2026-04-28 10:44 | 48.93851 | 2.78943 | 3994 ft | 233 kts | 90° |
| 2026-04-28 10:44 | 48.93852 | 2.81427 | 3988 ft | 237 kts | 90° |
| 2026-04-28 10:45 | 48.93848 | 2.83939 | 4003 ft | 239 kts | 90° |
| 2026-04-28 10:45 | 48.93848 | 2.86453 | 4064 ft | 237 kts | 90° |
| 2026-04-28 10:45 | 48.93852 | 2.88948 | 4157 ft | 235 kts | 90° |
| 2026-04-28 10:45 | 48.93852 | 2.91428 | 4185 ft | 234 kts | 90° |
| 2026-04-28 10:46 | 48.93852 | 2.93065 | 4251 ft | 233 kts | 91° |
| 2026-04-28 10:46 | 48.93860 | 2.95525 | 4241 ft | 232 kts | 89° |
| 2026-04-28 10:46 | 48.93863 | 2.97970 | 4357 ft | 228 kts | 90° |
| 2026-04-28 10:46 | 48.93855 | 3.00276 | 4655 ft | 218 kts | 90° |
| 2026-04-28 10:47 | 48.93858 | 3.03369 | 4764 ft | 223 kts | 91° |
| 2026-04-28 10:47 | 48.93824 | 3.04981 | 4745 ft | 227 kts | 93° |
| 2026-04-28 10:47 | 48.93691 | 3.07345 | 4824 ft | 225 kts | 97° |
| 2026-04-28 10:47 | 48.93455 | 3.09689 | 4986 ft | 224 kts | 100° |
| 2026-04-28 10:48 | 48.93200 | 3.12018 | 5056 ft | 225 kts | 100° |
| 2026-04-28 10:48 | 48.92862 | 3.14427 | 5053 ft | 253 kts | 104° |
| 2026-04-28 10:48 | 48.92339 | 3.17152 | 5841 ft | 267 kts | 109° |
| 2026-04-28 10:48 | 48.91646 | 3.19500 | 7944 ft | 221 kts | 121° |
| 2026-04-28 10:49 | 48.90734 | 3.21316 | 9315 ft | 225 kts | 134° |
| 2026-04-28 10:49 | 48.89358 | 3.22936 | 9225 ft | 280 kts | 151° |
| 2026-04-28 10:49 | 48.87423 | 3.23956 | 9838 ft | 296 kts | 171° |
| 2026-04-28 10:49 | 48.85539 | 3.23939 | 11905 ft | 246 kts | 193° |
| 2026-04-28 10:50 | 48.84036 | 3.22940 | 13458 ft | 242 kts | 217° |
| 2026-04-28 10:50 | 48.82856 | 3.20781 | 13368 ft | 300 kts | 245° |
| 2026-04-28 10:50 | 48.82735 | 3.17653 | 14482 ft | 297 kts | 286° |
| 2026-04-28 10:50 | 48.83807 | 3.15093 | 16160 ft | 291 kts | 315° |
| 2026-04-28 10:51 | 48.85612 | 3.13624 | 17187 ft | 305 kts | 345° |
| 2026-04-28 10:51 | 48.87744 | 3.13786 | 18305 ft | 317 kts | 15° |
| 2026-04-28 10:51 | 48.89718 | 3.15370 | 19228 ft | 327 kts | 36° |
| 2026-04-28 10:51 | 48.91148 | 3.18099 | 20160 ft | 336 kts | 62° |
| 2026-04-28 10:52 | 48.91768 | 3.21553 | 20900 ft | 350 kts | 86° |
| 2026-04-28 10:52 | 48.91472 | 3.25357 | 21130 ft | 376 kts | 103° |
| 2026-04-28 10:52 | 48.90831 | 3.29293 | 21395 ft | 397 kts | 107° |
| 2026-04-28 10:52 | 48.90092 | 3.33362 | 22269 ft | 401 kts | 105° |
| 2026-04-28 10:53 | 48.89456 | 3.37522 | 23062 ft | 407 kts | 103° |
| 2026-04-28 10:53 | 48.88848 | 3.41751 | 23787 ft | 412 kts | 104° |
| 2026-04-28 10:53 | 48.88185 | 3.46018 | 24403 ft | 417 kts | 105° |
| 2026-04-28 10:53 | 48.87488 | 3.50328 | 24982 ft | 422 kts | 105° |
| 2026-04-28 10:54 | 48.86797 | 3.54697 | 25533 ft | 427 kts | 105° |
| 2026-04-28 10:54 | 48.86112 | 3.59107 | 26061 ft | 431 kts | 105° |
| 2026-04-28 10:54 | 48.85425 | 3.63510 | 26557 ft | 435 kts | 105° |
| 2026-04-28 10:54 | 48.84709 | 3.67994 | 27040 ft | 439 kts | 105° |
| 2026-04-28 10:55 | 48.83987 | 3.72531 | 27495 ft | 443 kts | 105° |
| 2026-04-28 10:55 | 48.83263 | 3.77097 | 27951 ft | 446 kts | 105° |
| 2026-04-28 10:55 | 48.82529 | 3.81711 | 28377 ft | 450 kts | 105° |
| 2026-04-28 10:55 | 48.81799 | 3.86287 | 28778 ft | 453 kts | 105° |
| 2026-04-28 10:56 | 48.81047 | 3.90954 | 29166 ft | 456 kts | 105° |
| 2026-04-28 10:56 | 48.80290 | 3.95661 | 29536 ft | 459 kts | 105° |
| 2026-04-28 10:56 | 48.79531 | 4.00378 | 29888 ft | 462 kts | 105° |
| 2026-04-28 10:56 | 48.78762 | 4.05121 | 30218 ft | 464 kts | 105° |
| 2026-04-28 10:57 | 48.77966 | 4.09857 | 30780 ft | 455 kts | 109° |
| 2026-04-28 10:57 | 48.76897 | 4.14203 | 32200 ft | 425 kts | 116° |
| 2026-04-28 10:57 | 48.75609 | 4.18059 | 33573 ft | 400 kts | 124° |
| 2026-04-28 10:57 | 48.74093 | 4.21561 | 34146 ft | 396 kts | 130° |
| 2026-04-28 10:58 | 48.72487 | 4.24960 | 34568 ft | 397 kts | 130° |
| 2026-04-28 10:58 | 48.70894 | 4.28368 | 35033 ft | 396 kts | 129° |
| 2026-04-28 10:58 | 48.69300 | 4.31776 | 35496 ft | 395 kts | 130° |
| 2026-04-28 10:58 | 48.67705 | 4.35157 | 35946 ft | 394 kts | 130° |
| 2026-04-28 10:59 | 48.66135 | 4.38490 | 36392 ft | 393 kts | 129° |
| 2026-04-28 10:59 | 48.64545 | 4.41860 | 36837 ft | 393 kts | 129° |
| 2026-04-28 10:59 | 48.62961 | 4.45220 | 37297 ft | 392 kts | 129° |
| 2026-04-28 10:59 | 48.61375 | 4.48574 | 37761 ft | 391 kts | 129° |
| 2026-04-28 11:00 | 48.59795 | 4.51908 | 38214 ft | 390 kts | 129° |
| 2026-04-28 11:00 | 48.58218 | 4.55238 | 38657 ft | 389 kts | 129° |
| 2026-04-28 11:00 | 48.56641 | 4.58561 | 39022 ft | 389 kts | 129° |
| 2026-04-28 11:00 | 48.55065 | 4.61880 | 39358 ft | 389 kts | 129° |
| 2026-04-28 11:01 | 48.53487 | 4.65196 | 39706 ft | 388 kts | 129° |
| 2026-04-28 11:01 | 48.51910 | 4.68507 | 40072 ft | 388 kts | 129° |
| 2026-04-28 11:01 | 48.50357 | 4.71767 | 40427 ft | 388 kts | 129° |
| 2026-04-28 11:01 | 48.48776 | 4.75075 | 40779 ft | 388 kts | 128° |
| 2026-04-28 11:02 | 48.47185 | 4.78402 | 40900 ft | 395 kts | 128° |
| 2026-04-28 11:02 | 48.43894 | 4.85271 | 40946 ft | 413 kts | 128° |
| 2026-04-28 11:03 | 48.40463 | 4.92420 | 40951 ft | 429 kts | 128° |
| 2026-04-28 11:03 | 48.36902 | 4.99814 | 40956 ft | 442 kts | 128° |
| 2026-04-28 11:04 | 48.33284 | 5.07314 | 41045 ft | 450 kts | 128° |
| 2026-04-28 11:04 | 48.29943 | 5.15384 | 41049 ft | 461 kts | 116° |
| 2026-04-28 11:05 | 48.28017 | 5.24667 | 41052 ft | 470 kts | 103° |
| 2026-04-28 11:05 | 48.26583 | 5.34327 | 41048 ft | 475 kts | 103° |
| 2026-04-28 11:05 | 48.25880 | 5.39040 | 41052 ft | 460 kts | 103° |
| 2026-04-28 11:06 | 48.25190 | 5.43675 | 41046 ft | 452 kts | 103° |
| 2026-04-28 11:06 | 48.23813 | 5.52837 | 41039 ft | 447 kts | 103° |
| 2026-04-28 11:07 | 48.22445 | 5.61896 | 41045 ft | 442 kts | 103° |
| 2026-04-28 11:07 | 48.21083 | 5.70866 | 41051 ft | 439 kts | 104° |
| 2026-04-28 11:08 | 48.19733 | 5.79705 | 41061 ft | 436 kts | 104° |
| 2026-04-28 11:08 | 48.18375 | 5.88548 | 41038 ft | 434 kts | 104° |
| 2026-04-28 11:09 | 48.17017 | 5.97343 | 41041 ft | 433 kts | 104° |
| 2026-04-28 11:09 | 48.15654 | 6.06117 | 41044 ft | 431 kts | 104° |
| 2026-04-28 11:10 | 48.14289 | 6.14857 | 41041 ft | 431 kts | 104° |
| 2026-04-28 11:10 | 48.12923 | 6.23570 | 41041 ft | 430 kts | 104° |
| 2026-04-28 11:11 | 48.11557 | 6.32225 | 41043 ft | 429 kts | 104° |
| 2026-04-28 11:11 | 48.10177 | 6.40921 | 41045 ft | 429 kts | 104° |
| 2026-04-28 11:12 | 48.08790 | 6.49614 | 41040 ft | 429 kts | 104° |
| 2026-04-28 11:12 | 48.07408 | 6.58240 | 41042 ft | 430 kts | 104° |
| 2026-04-28 11:13 | 48.05997 | 6.66989 | 41047 ft | 436 kts | 104° |
| 2026-04-28 11:13 | 48.04561 | 6.75852 | 41063 ft | 440 kts | 104° |
| 2026-04-28 11:14 | 48.03109 | 6.84773 | 41057 ft | 444 kts | 104° |
| 2026-04-28 11:14 | 48.01635 | 6.93780 | 41049 ft | 447 kts | 104° |
| 2026-04-28 11:15 | 48.00148 | 7.02810 | 41058 ft | 449 kts | 104° |
| 2026-04-28 11:15 | 47.98659 | 7.11814 | 41058 ft | 451 kts | 104° |
| 2026-04-28 11:16 | 47.97142 | 7.20917 | 41058 ft | 452 kts | 104° |
| 2026-04-28 11:16 | 47.95617 | 7.30047 | 41057 ft | 454 kts | 104° |
| 2026-04-28 11:17 | 47.94078 | 7.39194 | 41058 ft | 455 kts | 104° |
| 2026-04-28 11:17 | 47.92531 | 7.48353 | 41059 ft | 455 kts | 104° |
| 2026-04-28 11:18 | 47.90974 | 7.57467 | 41065 ft | 456 kts | 106° |
| 2026-04-28 11:18 | 47.89602 | 7.63181 | 41061 ft | 456 kts | 111° |
| 2026-04-28 11:19 | 47.87379 | 7.72038 | 41058 ft | 456 kts | 111° |
| 2026-04-28 11:19 | 47.85128 | 7.80891 | 41060 ft | 457 kts | 111° |
| 2026-04-28 11:20 | 47.82875 | 7.89746 | 41057 ft | 457 kts | 111° |
| 2026-04-28 11:20 | 47.80619 | 7.98578 | 41063 ft | 457 kts | 111° |
| 2026-04-28 11:21 | 47.78356 | 8.07393 | 41059 ft | 458 kts | 111° |
| 2026-04-28 11:21 | 47.76101 | 8.16150 | 41066 ft | 458 kts | 111° |
| 2026-04-28 11:22 | 47.73812 | 8.25004 | 41066 ft | 459 kts | 111° |
| 2026-04-28 11:22 | 47.71514 | 8.33855 | 41068 ft | 459 kts | 111° |
| 2026-04-28 11:23 | 47.69209 | 8.42704 | 41166 ft | 459 kts | 113° |
| 2026-04-28 11:23 | 47.67161 | 8.51671 | 41073 ft | 463 kts | 109° |
| 2026-04-28 11:24 | 47.65104 | 8.60724 | 41075 ft | 463 kts | 110° |
| 2026-04-28 11:24 | 47.63062 | 8.69725 | 41075 ft | 463 kts | 109° |
| 2026-04-28 11:25 | 47.60995 | 8.78787 | 41069 ft | 464 kts | 110° |
| 2026-04-28 11:25 | 47.58948 | 8.87725 | 41068 ft | 464 kts | 110° |
| 2026-04-28 11:26 | 47.56867 | 8.96769 | 41066 ft | 464 kts | 110° |
| 2026-04-28 11:26 | 47.54800 | 9.05722 | 41062 ft | 464 kts | 110° |
| 2026-04-28 11:27 | 47.52718 | 9.14695 | 41065 ft | 464 kts | 110° |
| 2026-04-28 11:27 | 47.50614 | 9.23732 | 41070 ft | 465 kts | 110° |
| 2026-04-28 11:28 | 47.48496 | 9.32787 | 41071 ft | 465 kts | 110° |
| 2026-04-28 11:28 | 47.46377 | 9.41809 | 41075 ft | 465 kts | 110° |
| 2026-04-28 11:29 | 47.44258 | 9.50797 | 41076 ft | 465 kts | 110° |
| 2026-04-28 11:29 | 47.42118 | 9.59835 | 41076 ft | 465 kts | 110° |
| 2026-04-28 11:30 | 47.40320 | 9.69011 | 41075 ft | 466 kts | 101° |
| 2026-04-28 11:30 | 47.38370 | 9.83093 | 41073 ft | 467 kts | 102° |
| 2026-04-28 11:31 | 47.37075 | 9.92419 | 41075 ft | 467 kts | 102° |
| 2026-04-28 11:31 | 47.35752 | 10.01823 | 41081 ft | 468 kts | 102° |
| 2026-04-28 11:32 | 47.34425 | 10.11228 | 41079 ft | 468 kts | 102° |
| 2026-04-28 11:32 | 47.33093 | 10.20604 | 41082 ft | 468 kts | 102° |
| 2026-04-28 11:33 | 47.31757 | 10.29958 | 41081 ft | 469 kts | 102° |
| 2026-04-28 11:33 | 47.30404 | 10.39354 | 41085 ft | 469 kts | 102° |
| 2026-04-28 11:34 | 47.29044 | 10.48756 | 41089 ft | 469 kts | 102° |
| 2026-04-28 11:34 | 47.27675 | 10.58152 | 41105 ft | 469 kts | 102° |
| 2026-04-28 11:35 | 47.26528 | 10.65988 | 41074 ft | 471 kts | 102° |
| 2026-04-28 11:35 | 47.25137 | 10.75423 | 41077 ft | 470 kts | 102° |
| 2026-04-28 11:36 | 47.23746 | 10.84826 | 41076 ft | 470 kts | 102° |
| 2026-04-28 11:36 | 47.22118 | 10.95736 | 41068 ft | 470 kts | 102° |
| 2026-04-28 11:37 | 47.20940 | 11.03588 | 41066 ft | 469 kts | 102° |
| 2026-04-28 11:37 | 47.19527 | 11.12956 | 41056 ft | 468 kts | 102° |
| 2026-04-28 11:38 | 47.18118 | 11.22235 | 41049 ft | 468 kts | 102° |
| 2026-04-28 11:38 | 47.16688 | 11.31602 | 41048 ft | 468 kts | 103° |
| 2026-04-28 11:39 | 47.15255 | 11.40942 | 41052 ft | 468 kts | 102° |
| 2026-04-28 11:39 | 47.13821 | 11.50220 | 41055 ft | 468 kts | 102° |
| 2026-04-28 11:40 | 47.12371 | 11.59559 | 41065 ft | 468 kts | 102° |
| 2026-04-28 11:40 | 47.10914 | 11.68889 | 41073 ft | 468 kts | 103° |
| 2026-04-28 11:41 | 47.09459 | 11.78137 | 41081 ft | 468 kts | 102° |
| 2026-04-28 11:41 | 47.07805 | 11.87373 | 41086 ft | 468 kts | 111° |
| 2026-04-28 11:42 | 47.05050 | 11.96021 | 41087 ft | 467 kts | 117° |
| 2026-04-28 11:42 | 47.02210 | 12.04548 | 41095 ft | 466 kts | 117° |
| 2026-04-28 11:43 | 46.99341 | 12.13080 | 41108 ft | 467 kts | 117° |
| 2026-04-28 11:43 | 46.96471 | 12.21614 | 41123 ft | 467 kts | 117° |
| 2026-04-28 11:44 | 46.93589 | 12.30143 | 41126 ft | 467 kts | 117° |
| 2026-04-28 11:44 | 46.90700 | 12.38669 | 41130 ft | 467 kts | 117° |
| 2026-04-28 11:45 | 46.87812 | 12.47165 | 41117 ft | 466 kts | 117° |
| 2026-04-28 11:45 | 46.84916 | 12.55659 | 41118 ft | 467 kts | 117° |
| 2026-04-28 11:46 | 46.82030 | 12.64093 | 41108 ft | 467 kts | 117° |
| 2026-04-28 11:46 | 46.79115 | 12.72584 | 41095 ft | 467 kts | 117° |
| 2026-04-28 11:47 | 46.76205 | 12.81036 | 41094 ft | 466 kts | 117° |
| 2026-04-28 11:47 | 46.73287 | 12.89477 | 41096 ft | 465 kts | 117° |
| 2026-04-28 11:48 | 46.70673 | 12.97022 | 41095 ft | 466 kts | 117° |
| 2026-04-28 11:48 | 46.67759 | 13.05406 | 41085 ft | 466 kts | 117° |
| 2026-04-28 11:49 | 46.64996 | 13.13329 | 41092 ft | 465 kts | 117° |
| 2026-04-28 11:49 | 46.62060 | 13.21724 | 41091 ft | 465 kts | 117° |
| 2026-04-28 11:50 | 46.59113 | 13.30123 | 41090 ft | 466 kts | 118° |
| 2026-04-28 11:50 | 46.55928 | 13.38251 | 41086 ft | 464 kts | 127° |
| 2026-04-28 11:51 | 46.51692 | 13.45250 | 41089 ft | 461 kts | 135° |
| 2026-04-28 11:51 | 46.47335 | 13.52082 | 41096 ft | 461 kts | 135° |
| 2026-04-28 11:52 | 46.42977 | 13.58876 | 41094 ft | 459 kts | 135° |
| 2026-04-28 11:52 | 46.38655 | 13.65599 | 41098 ft | 458 kts | 135° |
| 2026-04-28 11:53 | 46.34303 | 13.72359 | 41096 ft | 458 kts | 135° |
| 2026-04-28 11:53 | 46.29940 | 13.79109 | 41099 ft | 459 kts | 135° |
| 2026-04-28 11:54 | 46.25561 | 13.85875 | 41099 ft | 460 kts | 135° |
| 2026-04-28 11:54 | 46.21206 | 13.92581 | 41100 ft | 461 kts | 135° |
| 2026-04-28 11:55 | 46.16798 | 13.99357 | 41104 ft | 462 kts | 135° |
| 2026-04-28 11:55 | 46.12389 | 14.06113 | 41108 ft | 463 kts | 135° |
| 2026-04-28 11:56 | 46.07990 | 14.12839 | 41111 ft | 464 kts | 135° |
| 2026-04-28 11:56 | 46.03558 | 14.19600 | 41110 ft | 464 kts | 135° |
| 2026-04-28 11:57 | 45.99120 | 14.26351 | 41107 ft | 463 kts | 135° |
| 2026-04-28 11:57 | 45.94709 | 14.33047 | 41100 ft | 464 kts | 135° |
| 2026-04-28 11:58 | 45.90265 | 14.39773 | 41102 ft | 464 kts | 135° |
| 2026-04-28 11:58 | 45.85814 | 14.46495 | 41097 ft | 464 kts | 135° |
| 2026-04-28 11:59 | 45.81357 | 14.53209 | 41094 ft | 464 kts | 135° |
| 2026-04-28 11:59 | 45.76897 | 14.59911 | 41097 ft | 465 kts | 135° |
| 2026-04-28 12:00 | 45.72428 | 14.66608 | 41100 ft | 465 kts | 135° |
| 2026-04-28 12:00 | 45.67979 | 14.73261 | 41090 ft | 465 kts | 135° |
| 2026-04-28 12:01 | 45.63492 | 14.79953 | 41101 ft | 465 kts | 135° |
| 2026-04-28 12:01 | 45.59039 | 14.86578 | 41095 ft | 465 kts | 136° |
| 2026-04-28 12:02 | 45.54548 | 14.93241 | 41093 ft | 465 kts | 136° |
| 2026-04-28 12:02 | 45.50062 | 14.99935 | 41091 ft | 466 kts | 133° |
| 2026-04-28 12:03 | 45.46274 | 15.07384 | 41094 ft | 467 kts | 126° |
| 2026-04-28 12:03 | 45.42579 | 15.14999 | 41090 ft | 466 kts | 126° |
| 2026-04-28 12:04 | 45.38904 | 15.22553 | 41099 ft | 466 kts | 126° |
| 2026-04-28 12:04 | 45.35203 | 15.30142 | 41097 ft | 467 kts | 126° |
| 2026-04-28 12:05 | 45.31493 | 15.37724 | 41093 ft | 467 kts | 126° |
| 2026-04-28 12:05 | 45.27783 | 15.45296 | 41092 ft | 467 kts | 126° |
| 2026-04-28 12:06 | 45.24059 | 15.52868 | 41105 ft | 467 kts | 126° |
| 2026-04-28 12:06 | 45.20354 | 15.60381 | 41104 ft | 467 kts | 126° |
| 2026-04-28 12:07 | 45.16623 | 15.67934 | 41096 ft | 467 kts | 126° |
| 2026-04-28 12:07 | 45.12888 | 15.75468 | 41099 ft | 467 kts | 126° |
| 2026-04-28 12:08 | 45.09139 | 15.83012 | 41101 ft | 467 kts | 126° |
| 2026-04-28 12:08 | 45.05394 | 15.90532 | 41099 ft | 468 kts | 126° |
| 2026-04-28 12:09 | 45.01665 | 15.97996 | 41102 ft | 468 kts | 126° |
| 2026-04-28 12:09 | 44.97909 | 16.05496 | 41094 ft | 468 kts | 126° |
| 2026-04-28 12:10 | 44.94141 | 16.13000 | 41093 ft | 468 kts | 126° |
| 2026-04-28 12:10 | 44.90368 | 16.20494 | 41099 ft | 468 kts | 127° |
| 2026-04-28 12:11 | 44.86617 | 16.27926 | 41091 ft | 468 kts | 126° |
| 2026-04-28 12:11 | 44.82810 | 16.35449 | 41092 ft | 468 kts | 127° |
| 2026-04-28 12:12 | 44.79021 | 16.42915 | 41086 ft | 468 kts | 127° |
| 2026-04-28 12:12 | 44.75258 | 16.50314 | 41087 ft | 468 kts | 127° |
| 2026-04-28 12:13 | 44.71460 | 16.57762 | 41081 ft | 468 kts | 127° |
| 2026-04-28 12:13 | 44.67654 | 16.65202 | 41084 ft | 468 kts | 127° |
| 2026-04-28 12:14 | 44.63848 | 16.72631 | 41084 ft | 468 kts | 127° |
| 2026-04-28 12:14 | 44.60059 | 16.80000 | 41081 ft | 468 kts | 127° |
| 2026-04-28 12:15 | 44.56249 | 16.87393 | 41079 ft | 467 kts | 127° |
| 2026-04-28 12:15 | 44.52309 | 16.94641 | 41078 ft | 467 kts | 129° |
| 2026-04-28 12:16 | 44.48275 | 17.01782 | 41075 ft | 467 kts | 129° |
| 2026-04-28 12:16 | 44.44250 | 17.08926 | 41074 ft | 467 kts | 129° |
| 2026-04-28 12:17 | 44.40209 | 17.16056 | 41074 ft | 467 kts | 129° |
| 2026-04-28 12:17 | 44.36170 | 17.23180 | 41076 ft | 467 kts | 129° |
| 2026-04-28 12:18 | 44.32149 | 17.30248 | 41075 ft | 467 kts | 130° |
| 2026-04-28 12:18 | 44.28092 | 17.37362 | 41070 ft | 467 kts | 130° |
| 2026-04-28 12:19 | 44.24038 | 17.44457 | 41066 ft | 467 kts | 130° |
| 2026-04-28 12:19 | 44.20000 | 17.51504 | 41066 ft | 467 kts | 129° |
| 2026-04-28 12:20 | 44.15937 | 17.58577 | 41063 ft | 468 kts | 130° |
| 2026-04-28 12:20 | 44.11850 | 17.65672 | 41065 ft | 468 kts | 130° |
| 2026-04-28 12:21 | 44.07869 | 17.72779 | 41063 ft | 469 kts | 128° |
| 2026-04-28 12:21 | 44.03874 | 17.79975 | 41052 ft | 469 kts | 129° |
| 2026-04-28 12:22 | 43.99858 | 17.87116 | 41053 ft | 468 kts | 129° |
| 2026-04-28 12:22 | 43.95862 | 17.94259 | 41055 ft | 468 kts | 129° |
| 2026-04-28 12:23 | 43.91847 | 18.01381 | 41048 ft | 468 kts | 129° |
| 2026-04-28 12:23 | 43.87838 | 18.08499 | 41045 ft | 468 kts | 129° |
| 2026-04-28 12:24 | 43.83839 | 18.15567 | 41045 ft | 469 kts | 129° |
| 2026-04-28 12:24 | 43.79809 | 18.22678 | 41045 ft | 469 kts | 129° |
| 2026-04-28 12:25 | 43.75779 | 18.29773 | 41045 ft | 469 kts | 129° |
| 2026-04-28 12:25 | 43.71742 | 18.36860 | 41044 ft | 469 kts | 129° |
| 2026-04-28 12:26 | 43.68381 | 18.42746 | 41046 ft | 469 kts | 129° |
| 2026-04-28 12:26 | 43.64331 | 18.49829 | 41051 ft | 469 kts | 129° |
| 2026-04-28 12:27 | 43.60279 | 18.56892 | 41053 ft | 469 kts | 129° |
| 2026-04-28 12:27 | 43.56221 | 18.63953 | 41048 ft | 469 kts | 129° |
| 2026-04-28 12:28 | 43.52186 | 18.70952 | 41046 ft | 469 kts | 129° |